Time;durP1;ratioP1;P1;durP2;ratioP2;P2;SDS_P1;SDS_P2;PMS_P1;PMS_P2;Temp;Humidity;BMP_temperature;BMP_pressure;BME280_temperature;BME280_humidity;BME280_pressure;Samples;Min_cycle;Max_cycle;Signal;HPM_P1;HPM_P2
2022/10/13 00:00:43;;;;;;;1.17;0.30;;;21.20;67.80;;;;;;4219462;28;20048;-52
2022/10/13 00:03:05;;;;;;;2.38;0.82;;;21.30;67.80;;;;;;4217356;28;20040;-52
2022/10/13 00:05:29;;;;;;;0.50;0.30;;;21.30;67.60;;;;;;4220122;27;20048;-52
2022/10/13 00:07:51;;;;;;;0.82;0.50;;;21.20;67.50;;;;;;4220429;27;20031;-51
2022/10/13 00:10:14;;;;;;;0.98;0.45;;;21.30;67.70;;;;;;4215770;27;20032;-54
2022/10/13 00:12:38;;;;;;;3.28;0.90;;;21.30;67.60;;;;;;4216175;27;20118;-51
2022/10/13 00:15:01;;;;;;;2.28;0.77;;;21.30;67.00;;;;;;4208803;27;20043;-49
2022/10/13 00:17:23;;;;;;;4.30;0.80;;;21.30;66.70;;;;;;4213208;27;20043;-43
2022/10/13 00:19:46;;;;;;;8.73;0.75;;;21.30;66.50;;;;;;4222675;27;20487;-46
2022/10/13 00:22:08;;;;;;;2.50;0.70;;;21.30;66.80;;;;;;4224136;27;20039;-43
2022/10/13 00:24:31;;;;;;;5.40;0.93;;;21.30;67.30;;;;;;4219822;27;21517;-44
2022/10/13 00:26:53;;;;;;;1.40;0.65;;;21.50;67.60;;;;;;4226323;27;20036;-46
2022/10/13 00:29:16;;;;;;;7.32;0.70;;;21.50;67.40;;;;;;4213032;27;20085;-44
2022/10/13 00:31:39;;;;;;;1.25;0.50;;;21.60;67.30;;;;;;4220746;27;20062;-46
2022/10/13 00:34:02;;;;;;;2.65;0.50;;;21.60;67.00;;;;;;4221360;27;20035;-44
2022/10/13 00:36:25;;;;;;;1.95;0.60;;;21.60;66.80;;;;;;4223561;27;20078;-42
2022/10/13 00:38:48;;;;;;;2.67;0.50;;;21.70;66.80;;;;;;4216771;27;20043;-46
2022/10/13 00:41:11;;;;;;;1.40;0.50;;;21.70;66.50;;;;;;4225417;27;20051;-44
2022/10/13 00:43:58;;;;;;;2.38;1.05;;;21.70;66.50;;;;;;4217159;27;20139;-43
2022/10/13 00:46:23;;;;;;;0.93;0.35;;;21.70;66.60;;;;;;4218056;27;20056;-44
2022/10/13 00:48:46;;;;;;;0.77;0.57;;;21.70;66.40;;;;;;4223176;27;20482;-43
2022/10/13 00:51:10;;;;;;;3.40;0.50;;;21.80;66.60;;;;;;4207166;28;20047;-42
2022/10/13 00:53:36;;;;;;;0.90;0.30;;;21.80;66.40;;;;;;4220451;27;20474;-45
2022/10/13 00:55:59;;;;;;;1.33;0.43;;;21.80;66.40;;;;;;4219648;27;20040;-43
2022/10/13 00:58:24;;;;;;;2.95;0.70;;;21.80;66.30;;;;;;4216701;27;20035;-43
2022/10/13 01:00:50;;;;;;;0.60;0.40;;;21.80;66.40;;;;;;4222901;27;20566;-43
2022/10/13 01:03:12;;;;;;;1.60;0.68;;;21.80;66.40;;;;;;4230628;27;20057;-44
2022/10/13 01:05:35;;;;;;;2.08;0.80;;;21.80;65.40;;;;;;4215100;27;20045;-44
2022/10/13 01:07:58;;;;;;;2.40;0.93;;;21.80;65.40;;;;;;4223761;27;20406;-43
2022/10/13 01:11:02;;;;;;;4.78;1.02;;;21.80;65.40;;;;;;4227292;27;20040;-44
2022/10/13 01:13:31;;;;;;;2.03;0.77;;;21.80;65.00;;;;;;4218264;27;20371;-45
2022/10/13 01:16:34;;;;;;;3.38;0.90;;;21.80;65.40;;;;;;4221281;27;20124;-48
2022/10/13 01:19:30;;;;;;;2.53;1.08;;;21.80;65.30;;;;;;4160101;28;20742;-45
2022/10/13 01:22:22;;;;;;;3.38;1.05;;;21.80;65.20;;;;;;4219732;27;20048;-44
2022/10/13 01:25:39;;;;;;;1.60;0.73;;;21.90;64.90;;;;;;4225135;27;20096;-43
2022/10/13 01:28:04;;;;;;;2.88;0.90;;;21.90;64.80;;;;;;4176528;28;20064;-45
2022/10/13 01:30:27;;;;;;;4.68;1.10;;;21.90;64.50;;;;;;4218391;27;20095;-45
2022/10/13 01:33:05;;;;;;;2.88;1.13;;;21.90;64.30;;;;;;4229259;27;20032;-48
2022/10/13 01:35:31;;;;;;;2.03;0.68;;;21.90;64.60;;;;;;4219548;27;20035;-46
2022/10/13 01:38:07;;;;;;;4.40;1.10;;;21.90;64.40;;;;;;4224169;27;20060;-45
2022/10/13 01:40:51;;;;;;;2.95;0.90;;;21.90;64.20;;;;;;4225550;27;20047;-44
2022/10/13 01:43:22;;;;;;;2.40;0.82;;;21.90;64.30;;;;;;4219215;27;20405;-45
2022/10/13 01:46:08;;;;;;;1.25;0.65;;;21.90;64.00;;;;;;4225698;27;20032;-45
2022/10/13 01:48:32;;;;;;;2.97;0.90;;;21.90;64.30;;;;;;4230014;27;20035;-46
2022/10/13 01:50:58;;;;;;;2.42;0.90;;;21.90;64.10;;;;;;4233733;27;20031;-44
2022/10/13 01:53:22;;;;;;;2.67;1.20;;;21.90;64.10;;;;;;4214227;28;20047;-47
2022/10/13 01:55:59;;;;;;;3.80;1.10;;;21.90;64.00;;;;;;4231910;27;20051;-46
2022/10/13 01:58:24;;;;;;;4.18;1.35;;;22.00;64.10;;;;;;4221416;27;20042;-44
2022/10/13 02:01:14;;;;;;;5.07;1.00;;;22.00;64.30;;;;;;4231589;27;20039;-44
2022/10/13 02:03:57;;;;;;;3.58;1.15;;;22.00;64.50;;;;;;4224588;27;20645;-47
2022/10/13 02:06:52;;;;;;;15.27;1.70;;;22.00;66.00;;;;;;4217194;27;20046;-50
2022/10/13 02:09:32;;;;;;;6.13;1.08;;;22.00;65.90;;;;;;4195813;27;20047;-48
2022/10/13 02:12:22;;;;;;;5.10;1.13;;;22.10;65.60;;;;;;4219865;27;20032;-48
2022/10/13 02:14:46;;;;;;;3.88;1.13;;;22.10;65.60;;;;;;4225620;27;20039;-48
2022/10/13 02:17:09;;;;;;;3.05;1.15;;;22.20;65.40;;;;;;4230627;27;20479;-45
2022/10/13 02:19:37;;;;;;;4.40;1.05;;;22.20;64.70;;;;;;4219220;27;20040;-44
2022/10/13 02:21:59;;;;;;;2.67;0.80;;;22.20;64.30;;;;;;4214461;27;20410;-44
2022/10/13 02:24:22;;;;;;;2.22;0.80;;;22.20;63.90;;;;;;4224379;27;20031;-46
2022/10/13 02:26:45;;;;;;;4.13;1.08;;;22.20;63.70;;;;;;4223787;27;20072;-43
2022/10/13 02:29:12;;;;;;;3.97;1.52;;;22.20;63.60;;;;;;4221671;27;20517;-44
2022/10/13 02:31:35;;;;;;;3.85;0.80;;;22.20;63.70;;;;;;4220989;27;20039;-45
2022/10/13 02:33:58;;;;;;;4.25;1.17;;;22.20;64.10;;;;;;4218829;28;20035;-43
2022/10/13 02:36:20;;;;;;;5.35;1.20;;;22.20;64.30;;;;;;4220656;27;20134;-43
2022/10/13 02:38:46;;;;;;;2.97;0.85;;;22.20;64.50;;;;;;4219664;28;20061;-47
2022/10/13 02:41:08;;;;;;;4.28;0.95;;;22.30;64.80;;;;;;4229783;27;20046;-43
2022/10/13 02:43:32;;;;;;;4.63;1.25;;;22.30;64.90;;;;;;4229625;27;20050;-50
2022/10/13 02:45:55;;;;;;;3.78;1.23;;;22.30;65.50;;;;;;4229584;27;20062;-52
2022/10/13 02:48:17;;;;;;;2.28;0.98;;;22.30;64.90;;;;;;4226692;27;20039;-49
2022/10/13 02:50:40;;;;;;;2.13;0.90;;;22.30;63.90;;;;;;4221737;27;20027;-42
2022/10/13 02:53:02;;;;;;;2.10;0.98;;;22.20;63.90;;;;;;4211632;27;20048;-48
2022/10/13 02:55:25;;;;;;;3.28;0.85;;;22.20;63.80;;;;;;4220442;27;20131;-46
2022/10/13 02:57:48;;;;;;;2.30;0.93;;;22.20;63.90;;;;;;4224599;27;20101;-46
2022/10/13 03:00:11;;;;;;;2.42;0.93;;;22.20;63.90;;;;;;4224820;27;20055;-46
2022/10/13 03:02:33;;;;;;;4.68;0.80;;;22.20;64.20;;;;;;4218699;28;20535;-51
2022/10/13 03:04:56;;;;;;;9.65;1.13;;;22.20;64.30;;;;;;4223504;27;20031;-48
2022/10/13 03:07:19;;;;;;;4.60;1.00;;;22.20;64.50;;;;;;4223683;27;20059;-48
2022/10/13 03:09:41;;;;;;;1.45;0.80;;;22.30;64.20;;;;;;4227587;27;20110;-51
2022/10/13 03:12:04;;;;;;;2.58;1.10;;;22.30;64.30;;;;;;4224892;27;20036;-51
2022/10/13 03:14:27;;;;;;;5.95;0.88;;;22.30;64.30;;;;;;4217662;28;20047;-46
2022/10/13 03:16:49;;;;;;;2.40;0.77;;;22.40;64.30;;;;;;4224471;28;20883;-46
2022/10/13 03:19:12;;;;;;;2.72;0.90;;;22.40;64.30;;;;;;4223126;28;20062;-50
2022/10/13 03:21:34;;;;;;;3.30;0.82;;;22.40;64.30;;;;;;4227020;28;20062;-51
2022/10/13 03:23:57;;;;;;;2.80;1.13;;;22.40;64.40;;;;;;4221810;28;20058;-48
2022/10/13 03:26:19;;;;;;;3.33;1.10;;;22.40;64.20;;;;;;4224504;28;20498;-47
2022/10/13 03:28:42;;;;;;;6.97;1.02;;;22.40;64.10;;;;;;4216053;28;20115;-50
2022/10/13 03:31:07;;;;;;;4.18;1.23;;;22.50;64.10;;;;;;4228624;28;20138;-49
2022/10/13 03:33:30;;;;;;;4.18;1.10;;;22.50;64.20;;;;;;4217346;28;20036;-47
2022/10/13 03:35:52;;;;;;;3.40;1.02;;;22.50;63.90;;;;;;4210614;28;20473;-47
2022/10/13 03:38:14;;;;;;;3.42;1.10;;;22.60;64.20;;;;;;4224959;28;20061;-49
2022/10/13 03:40:37;;;;;;;3.35;1.05;;;22.60;63.90;;;;;;4226294;27;20047;-47
2022/10/13 03:42:59;;;;;;;2.67;1.00;;;22.60;64.00;;;;;;4226482;27;20498;-50
2022/10/13 03:45:22;;;;;;;5.22;1.30;;;22.60;63.70;;;;;;4227119;27;20035;-50
2022/10/13 03:47:45;;;;;;;8.02;1.20;;;22.70;63.70;;;;;;4225756;27;20023;-47
2022/10/13 03:50:09;;;;;;;2.88;0.85;;;22.70;63.50;;;;;;4224954;27;20035;-49
2022/10/13 03:52:31;;;;;;;;;;;22.70;63.50;;;;;;4228021;27;20487;-43
2022/10/13 03:54:54;;;;;;;4.18;1.23;;;22.70;63.50;;;;;;4228423;27;19917;-46
2022/10/13 03:57:16;;;;;;;3.72;1.02;;;22.80;63.10;;;;;;4221591;27;20509;-44
2022/10/13 03:59:42;;;;;;;3.58;0.75;;;22.80;62.80;;;;;;4215585;27;20153;-47
2022/10/13 04:02:04;;;;;;;4.47;0.98;;;22.80;62.90;;;;;;4213793;27;20039;-44
2022/10/13 04:04:27;;;;;;;2.55;0.90;;;22.80;62.20;;;;;;4226443;27;20490;-45
2022/10/13 04:06:49;;;;;;;3.65;1.02;;;22.80;62.10;;;;;;4227801;27;20074;-45
2022/10/13 04:09:12;;;;;;;3.85;1.05;;;22.80;62.20;;;;;;4230686;27;20049;-43
2022/10/13 04:11:34;;;;;;;11.00;1.10;;;22.80;62.60;;;;;;4225733;27;20313;-46
2022/10/13 04:13:58;;;;;;;4.40;0.80;;;22.80;62.80;;;;;;4222140;27;20035;-43
2022/10/13 04:16:26;;;;;;;2.97;1.07;;;22.80;62.80;;;;;;4228447;27;20066;-46
2022/10/13 04:19:03;;;;;;;3.30;0.82;;;22.80;62.70;;;;;;4206500;27;20852;-45
2022/10/13 04:21:27;;;;;;;3.67;0.88;;;22.90;63.00;;;;;;4215048;27;20473;-42
2022/10/13 04:23:50;;;;;;;1.70;1.00;;;23.00;62.90;;;;;;4217732;27;20149;-45
2022/10/13 04:26:21;;;;;;;4.13;1.43;;;23.00;63.00;;;;;;4223092;27;20080;-46
2022/10/13 04:28:44;;;;;;;3.47;1.00;;;23.00;62.90;;;;;;4212389;27;20043;-43
2022/10/13 04:31:06;;;;;;;2.05;0.80;;;23.10;62.90;;;;;;4220490;27;20039;-45
2022/10/13 04:33:29;;;;;;;4.05;1.35;;;23.10;62.70;;;;;;4214580;27;20050;-43
2022/10/13 04:35:52;;;;;;;3.70;1.10;;;23.20;62.70;;;;;;4222987;27;20350;-45
2022/10/13 04:38:14;;;;;;;3.92;0.90;;;23.30;62.60;;;;;;4225609;27;20035;-44
2022/10/13 04:40:37;;;;;;;2.58;0.88;;;23.30;62.60;;;;;;4222168;27;20398;-44
2022/10/13 04:42:59;;;;;;;2.45;1.27;;;23.40;62.70;;;;;;4217140;27;20031;-45
2022/10/13 04:45:22;;;;;;;2.95;0.90;;;23.40;62.70;;;;;;4222059;27;20046;-44
2022/10/13 04:47:44;;;;;;;2.35;1.02;;;23.40;62.70;;;;;;4211997;27;20042;-44
2022/10/13 04:50:07;;;;;;;4.10;1.13;;;23.50;62.80;;;;;;4226578;27;20031;-43
2022/10/13 04:52:30;;;;;;;2.07;1.03;;;23.50;62.60;;;;;;4227069;27;20035;-44
2022/10/13 04:54:52;;;;;;;3.10;1.20;;;23.60;62.60;;;;;;4223129;27;20038;-46
2022/10/13 04:57:15;;;;;;;3.00;1.00;;;23.60;62.60;;;;;;4223974;27;20043;-45
2022/10/13 04:59:38;;;;;;;2.75;1.20;;;23.70;62.70;;;;;;4212357;27;20036;-45
2022/10/13 05:02:02;;;;;;;3.80;0.98;;;23.70;62.60;;;;;;4221035;27;20043;-44
2022/10/13 05:04:24;;;;;;;2.88;0.80;;;23.70;62.60;;;;;;4215685;27;20114;-46
2022/10/13 05:06:47;;;;;;;3.00;1.10;;;23.80;62.50;;;;;;4215494;27;20088;-45
2022/10/13 05:09:17;;;;;;;3.08;1.20;;;23.80;62.40;;;;;;4217795;27;20056;-45
2022/10/13 05:11:39;;;;;;;2.40;0.80;;;23.80;62.20;;;;;;4217466;27;20035;-45
2022/10/13 05:14:02;;;;;;;3.65;0.82;;;23.90;62.10;;;;;;4216242;27;20044;-46
2022/10/13 05:16:25;;;;;;;2.63;1.00;;;23.90;62.10;;;;;;4211040;27;20061;-45
2022/10/13 05:18:52;;;;;;;2.67;1.00;;;23.90;62.10;;;;;;4221714;27;20042;-47
2022/10/13 05:21:24;;;;;;;3.15;1.25;;;23.90;62.20;;;;;;4214234;27;20770;-44
2022/10/13 05:23:47;;;;;;;2.50;0.98;;;23.90;62.60;;;;;;4212743;27;20646;-44
2022/10/13 05:26:13;;;;;;;5.57;1.30;;;23.90;62.20;;;;;;4214499;27;20038;-43
2022/10/13 05:28:36;;;;;;;2.63;1.13;;;23.90;62.20;;;;;;4213564;27;20122;-46
2022/10/13 05:31:18;;;;;;;3.58;1.17;;;23.90;62.10;;;;;;4220876;27;20031;-43
2022/10/13 05:33:41;;;;;;;3.28;1.20;;;23.90;62.20;;;;;;4216915;27;20058;-45
2022/10/13 05:36:06;;;;;;;3.42;1.15;;;24.00;62.10;;;;;;4217325;27;20043;-43
2022/10/13 05:38:29;;;;;;;2.20;1.02;;;24.00;62.10;;;;;;4216719;27;20040;-44
2022/10/13 05:40:51;;;;;;;3.92;1.20;;;24.00;62.20;;;;;;4218864;27;20074;-43
2022/10/13 05:43:14;;;;;;;3.85;1.20;;;24.00;61.60;;;;;;4223024;27;20126;-43
2022/10/13 05:45:37;;;;;;;4.80;1.30;;;24.00;61.60;;;;;;4222731;27;20032;-46
2022/10/13 05:47:59;;;;;;;2.47;1.00;;;24.10;61.70;;;;;;4222965;27;20092;-44
2022/10/13 05:50:22;;;;;;;3.03;1.15;;;24.10;61.70;;;;;;4209686;27;20542;-48
2022/10/13 05:52:45;;;;;;;2.63;1.20;;;24.10;61.70;;;;;;4213645;27;20074;-45
2022/10/13 05:55:12;;;;;;;2.80;1.17;;;24.20;61.50;;;;;;4209728;27;20257;-46
2022/10/13 05:57:40;;;;;;;3.78;1.17;;;24.20;62.20;;;;;;4207796;27;20040;-45
2022/10/13 06:00:10;;;;;;;2.67;1.20;;;24.20;61.40;;;;;;4209614;27;20043;-47
2022/10/13 06:02:37;;;;;;;2.60;1.00;;;24.30;61.50;;;;;;4213396;27;20051;-44
2022/10/13 06:05:01;;;;;;;3.20;1.00;;;24.30;61.50;;;;;;4212836;27;20027;-45
2022/10/13 06:07:23;;;;;;;;;;;24.30;61.30;;;;;;4200799;27;20040;-47
2022/10/13 06:09:46;;;;;;;3.15;1.20;;;24.30;61.40;;;;;;4213193;27;19912;-48
2022/10/13 06:12:10;;;;;;;5.93;1.48;;;24.30;61.50;;;;;;4217467;27;20051;-45
2022/10/13 06:14:33;;;;;;;2.78;1.17;;;24.30;61.00;;;;;;4215293;27;21067;-44
2022/10/13 06:16:56;;;;;;;6.28;1.50;;;24.30;61.20;;;;;;4215733;27;20038;-44
2022/10/13 06:19:18;;;;;;;2.95;1.15;;;24.30;60.50;;;;;;4213093;27;20036;-44
2022/10/13 06:21:41;;;;;;;2.53;1.02;;;24.20;60.30;;;;;;4214959;27;20390;-45
2022/10/13 06:24:03;;;;;;;3.05;1.30;;;24.20;60.30;;;;;;4207520;27;20115;-46
2022/10/13 06:26:26;;;;;;;5.10;0.98;;;24.10;60.30;;;;;;4216473;27;20549;-44
2022/10/13 06:28:49;;;;;;;6.93;1.88;;;24.10;60.30;;;;;;4215681;27;20039;-45
2022/10/13 06:31:13;;;;;;;3.73;1.30;;;24.00;60.30;;;;;;4214522;27;20411;-45
2022/10/13 06:33:35;;;;;;;4.75;1.42;;;24.00;60.50;;;;;;4219317;27;20048;-43
2022/10/13 06:36:02;;;;;;;3.10;1.50;;;24.00;60.60;;;;;;4220615;27;20518;-43
2022/10/13 06:38:25;;;;;;;2.15;1.15;;;24.00;60.70;;;;;;4213208;27;20035;-43
2022/10/13 06:40:47;;;;;;;2.90;1.00;;;24.00;60.60;;;;;;4221525;27;20138;-44
2022/10/13 06:43:13;;;;;;;10.35;1.55;;;24.00;60.80;;;;;;4226675;27;20150;-47
2022/10/13 06:45:36;;;;;;;2.60;1.17;;;24.00;60.90;;;;;;4211216;27;20040;-45
2022/10/13 06:47:58;;;;;;;3.47;1.60;;;23.90;61.10;;;;;;4215641;27;20405;-43
2022/10/13 06:50:22;;;;;;;5.70;1.40;;;23.90;61.30;;;;;;4213886;27;20501;-46
2022/10/13 06:52:45;;;;;;;3.70;1.35;;;23.90;61.40;;;;;;4217641;27;20140;-45
2022/10/13 06:55:07;;;;;;;3.80;1.60;;;23.90;61.50;;;;;;4218296;27;20074;-44
2022/10/13 06:57:30;;;;;;;7.85;2.00;;;23.90;61.80;;;;;;4212394;27;20032;-43
2022/10/13 06:59:52;;;;;;;3.83;1.52;;;23.90;62.30;;;;;;4215053;27;20534;-52
2022/10/13 07:02:15;;;;;;;7.60;1.75;;;23.90;62.10;;;;;;4224904;27;20122;-52
2022/10/13 07:04:38;;;;;;;4.35;1.33;;;23.90;62.10;;;;;;4222513;27;20414;-53
2022/10/13 07:07:00;;;;;;;3.20;1.00;;;23.90;62.20;;;;;;4228078;28;20646;-51
2022/10/13 07:09:23;;;;;;;5.53;1.33;;;23.90;62.20;;;;;;4223659;27;20032;-51
2022/10/13 07:11:46;;;;;;;2.40;1.23;;;23.90;62.20;;;;;;4218953;28;20040;-51
2022/10/13 07:14:08;;;;;;;6.18;2.03;;;23.90;62.20;;;;;;4220567;28;20031;-49
2022/10/13 07:16:31;;;;;;;4.05;1.70;;;23.90;62.20;;;;;;4212135;28;20042;-49
2022/10/13 07:18:54;;;;;;;3.53;1.42;;;23.90;62.20;;;;;;4223979;28;20071;-51
2022/10/13 07:21:17;;;;;;;9.90;1.38;;;23.90;62.20;;;;;;4225136;28;20100;-50
2022/10/13 07:23:39;;;;;;;4.88;1.70;;;23.90;62.20;;;;;;4227153;28;20413;-52
2022/10/13 07:26:06;;;;;;;5.20;1.67;;;23.90;62.30;;;;;;4225672;28;20036;-51
2022/10/13 07:28:28;;;;;;;3.25;1.30;;;23.80;62.20;;;;;;4229336;28;20048;-48
2022/10/13 07:30:51;;;;;;;2.55;1.30;;;23.90;62.30;;;;;;4227875;28;20027;-50
2022/10/13 07:33:14;;;;;;;4.50;1.60;;;23.80;62.30;;;;;;4229791;28;20042;-52
2022/10/13 07:35:40;;;;;;;3.42;1.33;;;23.80;62.30;;;;;;4231580;28;20054;-51
2022/10/13 07:38:02;;;;;;;4.63;1.50;;;23.80;62.30;;;;;;4228175;28;20040;-47
2022/10/13 07:40:25;;;;;;;3.83;1.33;;;23.80;62.30;;;;;;4219622;28;20514;-49
2022/10/13 07:42:48;;;;;;;3.87;1.50;;;23.80;62.40;;;;;;4227550;28;20063;-53
2022/10/13 07:45:10;;;;;;;4.32;1.48;;;23.80;62.30;;;;;;4217092;28;20089;-50
2022/10/13 07:47:33;;;;;;;4.57;1.77;;;23.80;62.40;;;;;;4226670;28;20146;-49
2022/10/13 07:49:55;;;;;;;3.17;1.27;;;23.80;62.40;;;;;;4220603;28;20039;-53
2022/10/13 07:52:18;;;;;;;4.72;1.55;;;23.80;62.40;;;;;;4226752;28;20040;-51
2022/10/13 07:54:40;;;;;;;4.03;1.25;;;23.80;62.40;;;;;;4227034;28;20038;-53
2022/10/13 07:57:03;;;;;;;4.20;1.67;;;23.70;62.40;;;;;;4224230;28;20088;-52
2022/10/13 07:59:26;;;;;;;5.70;1.90;;;23.80;62.50;;;;;;4220128;28;20523;-50
2022/10/13 08:01:49;;;;;;;3.00;1.17;;;23.70;62.50;;;;;;4217650;28;20468;-50
2022/10/13 08:04:11;;;;;;;3.38;1.38;;;23.70;62.50;;;;;;4219744;28;20184;-49
2022/10/13 08:06:34;;;;;;;3.15;1.52;;;23.70;62.50;;;;;;4216438;28;20036;-51
2022/10/13 08:08:56;;;;;;;4.78;1.50;;;23.70;62.60;;;;;;4202115;28;20040;-50
2022/10/13 08:11:19;;;;;;;3.90;1.75;;;23.70;62.50;;;;;;4221390;28;20193;-52
2022/10/13 08:13:42;;;;;;;5.30;1.33;;;23.70;63.20;;;;;;4211776;28;20043;-54
2022/10/13 08:16:04;;;;;;;2.90;1.15;;;23.70;62.50;;;;;;4224508;28;20035;-50
2022/10/13 08:18:28;;;;;;;4.78;1.50;;;23.70;62.50;;;;;;4222025;28;20122;-54
2022/10/13 08:20:51;;;;;;;3.80;1.58;;;23.70;62.50;;;;;;4224024;28;20434;-53
2022/10/13 08:23:13;;;;;;;4.80;1.75;;;23.70;62.50;;;;;;4223009;28;20467;-49
2022/10/13 08:25:41;;;;;;;3.58;1.67;;;23.70;62.50;;;;;;4227106;28;20043;-51
2022/10/13 08:28:04;;;;;;;3.30;1.42;;;23.70;62.60;;;;;;4224803;27;20042;-56
2022/10/13 08:30:27;;;;;;;3.88;1.42;;;23.70;62.60;;;;;;4229917;27;20118;-53
2022/10/13 08:32:49;;;;;;;5.00;1.63;;;23.70;62.60;;;;;;4234212;27;20474;-54
2022/10/13 08:35:12;;;;;;;4.57;1.67;;;23.70;62.60;;;;;;4235773;27;20062;-53
2022/10/13 08:37:34;;;;;;;4.47;1.73;;;23.70;62.60;;;;;;4217560;27;20052;-54
2022/10/13 08:39:57;;;;;;;4.95;1.42;;;23.70;62.60;;;;;;4230187;27;20036;-55
2022/10/13 08:42:21;;;;;;;5.10;1.75;;;23.70;62.70;;;;;;4213827;27;20118;-54
2022/10/13 08:45:05;;;;;;;3.78;1.95;;;23.70;62.80;;;;;;4218628;27;20042;-54
2022/10/13 08:47:27;;;;;;;4.75;1.85;;;23.60;62.80;;;;;;4230489;27;20039;-54
2022/10/13 08:49:50;;;;;;;3.58;1.50;;;23.60;62.80;;;;;;4222365;27;20039;-53
2022/10/13 08:52:22;;;;;;;5.47;1.88;;;23.60;62.90;;;;;;4218522;27;20336;-53
2022/10/13 08:54:44;;;;;;;5.72;1.52;;;23.60;63.00;;;;;;4224051;27;20047;-53
2022/10/13 08:57:09;;;;;;;5.45;1.77;;;23.60;63.10;;;;;;4214408;27;20063;-54
2022/10/13 08:59:32;;;;;;;4.40;1.80;;;23.60;63.10;;;;;;4221729;27;20478;-55
2022/10/13 09:01:56;;;;;;;4.90;1.80;;;23.50;63.10;;;;;;4207974;27;20872;-51
2022/10/13 09:04:35;;;;;;;6.72;1.95;;;23.50;63.30;;;;;;4213297;27;20368;-55
2022/10/13 09:07:20;;;;;;;6.18;1.50;;;23.50;63.60;;;;;;4222990;27;20123;-52
2022/10/13 09:09:43;;;;;;;5.68;1.52;;;23.40;63.90;;;;;;4215647;27;20035;-54
2022/10/13 09:12:06;;;;;;;5.30;1.60;;;23.50;64.60;;;;;;4219313;27;20046;-55
2022/10/13 09:14:32;;;;;;;4.30;1.83;;;23.50;64.90;;;;;;4209302;27;20505;-53
2022/10/13 09:16:56;;;;;;;4.43;1.85;;;23.50;64.60;;;;;;4224450;27;20044;-53
2022/10/13 09:19:24;;;;;;;4.68;1.60;;;23.50;64.70;;;;;;4226487;27;20118;-53
2022/10/13 09:21:47;;;;;;;7.15;2.22;;;23.60;65.00;;;;;;4223576;27;20098;-53
2022/10/13 09:24:16;;;;;;;4.15;1.65;;;23.60;64.90;;;;;;4228309;27;20087;-49
2022/10/13 09:26:39;;;;;;;6.78;1.92;;;23.60;64.90;;;;;;4219397;27;20035;-53
2022/10/13 09:29:09;;;;;;;5.15;2.33;;;23.60;65.00;;;;;;4216815;27;20024;-53
2022/10/13 09:31:32;;;;;;;4.15;1.60;;;23.60;65.00;;;;;;4221310;27;20040;-55
2022/10/13 09:34:08;;;;;;;4.22;1.60;;;23.60;65.00;;;;;;4218152;27;20478;-51
2022/10/13 09:36:31;;;;;;;6.13;1.85;;;23.60;65.10;;;;;;4217697;27;20055;-53
2022/10/13 09:39:13;;;;;;;11.18;2.10;;;23.60;65.10;;;;;;4222073;27;20740;-53
2022/10/13 09:41:36;;;;;;;4.43;1.45;;;23.70;65.30;;;;;;4221321;27;20054;-54
2022/10/13 09:44:05;;;;;;;5.47;1.60;;;23.70;65.30;;;;;;4216993;27;20039;-50
2022/10/13 09:46:38;;;;;;;6.47;2.25;;;23.60;65.20;;;;;;4214614;27;20761;-55
2022/10/13 09:49:06;;;;;;;7.03;2.33;;;23.60;65.40;;;;;;4218810;27;20037;-53
2022/10/13 09:51:40;;;;;;;6.05;1.98;;;23.70;65.30;;;;;;4216098;27;20047;-54
2022/10/13 09:54:04;;;;;;;;;;;23.60;65.20;;;;;;4216170;27;20034;-54
2022/10/13 09:56:39;;;;;;;8.45;2.03;;;23.70;65.30;;;;;;4217415;27;20193;-57
2022/10/13 09:59:15;;;;;;;5.50;1.88;;;23.70;65.30;;;;;;4218578;27;20434;-55
2022/10/13 10:01:42;;;;;;;3.95;1.75;;;23.80;65.30;;;;;;4221374;27;20051;-55
2022/10/13 10:04:10;;;;;;;7.35;2.05;;;23.70;65.20;;;;;;4211967;27;20550;-55
2022/10/13 10:06:34;;;;;;;6.30;1.80;;;23.70;65.10;;;;;;4227006;27;20043;-57
2022/10/13 10:09:18;;;;;;;5.20;1.83;;;23.80;65.10;;;;;;4225891;27;20042;-56
2022/10/13 10:11:47;;;;;;;4.80;2.17;;;23.80;65.00;;;;;;4220112;27;20088;-55
2022/10/13 10:14:28;;;;;;;5.25;1.48;;;23.80;65.00;;;;;;4218389;27;20036;-57
2022/10/13 10:17:01;;;;;;;6.03;1.70;;;23.80;64.90;;;;;;4222711;27;20046;-55
2022/10/13 10:20:01;;;;;;;4.88;1.92;;;23.80;64.90;;;;;;4217482;27;20118;-57
2022/10/13 10:22:35;;;;;;;5.50;1.75;;;23.80;65.00;;;;;;4229312;27;20563;-55
2022/10/13 10:25:35;;;;;;;7.97;2.00;;;23.80;64.90;;;;;;4232870;27;20031;-52
2022/10/13 10:28:17;;;;;;;4.90;1.83;;;23.80;64.90;;;;;;4226457;27;20573;-57
2022/10/13 10:30:49;;;;;;;6.22;1.88;;;23.90;64.90;;;;;;4232951;27;20062;-57
2022/10/13 10:33:22;;;;;;;5.38;1.80;;;23.80;64.80;;;;;;4225683;27;20046;-58
2022/10/13 10:35:45;;;;;;;5.10;1.55;;;23.80;64.70;;;;;;4223844;27;20086;-55
2022/10/13 10:38:28;;;;;;;5.00;2.03;;;23.90;64.70;;;;;;4229742;27;20039;-57
2022/10/13 10:41:14;;;;;;;5.50;1.80;;;23.90;64.60;;;;;;4222565;27;20057;-58
2022/10/13 10:43:48;;;;;;;4.38;1.38;;;23.80;64.00;;;;;;4218170;27;20043;-58
2022/10/13 10:46:36;;;;;;;3.67;1.85;;;23.80;63.70;;;;;;4223926;27;20502;-57
2022/10/13 10:49:19;;;;;;;5.53;2.20;;;23.70;63.80;;;;;;4220813;27;20088;-57
2022/10/13 10:51:42;;;;;;;5.50;1.90;;;23.60;63.90;;;;;;4209940;28;20131;-58
2022/10/13 10:54:14;;;;;;;4.80;1.80;;;23.60;64.00;;;;;;4224163;27;20032;-57
2022/10/13 10:56:46;;;;;;;4.57;1.70;;;23.50;64.10;;;;;;4229538;27;20043;-58
2022/10/13 10:59:21;;;;;;;4.80;1.90;;;23.50;64.30;;;;;;4223860;27;20043;-59
2022/10/13 11:02:05;;;;;;;7.68;1.98;;;23.50;65.20;;;;;;4224829;27;20062;-57
2022/10/13 11:04:47;;;;;;;6.72;2.03;;;23.50;66.00;;;;;;4218850;27;20035;-54
2022/10/13 11:07:24;;;;;;;7.07;2.10;;;23.50;66.30;;;;;;4214989;27;21056;-46
2022/10/13 11:09:55;;;;;;;10.57;3.05;;;23.50;66.60;;;;;;4206639;27;20031;-45
2022/10/13 11:12:21;;;;;;;8.30;1.98;;;23.60;67.00;;;;;;4219670;27;20104;-45
2022/10/13 11:14:45;;;;;;;9.85;2.67;;;23.60;67.20;;;;;;4215941;27;20097;-45
2022/10/13 11:17:16;;;;;;;7.65;1.70;;;23.60;66.90;;;;;;4213965;28;20042;-45
2022/10/13 11:19:40;;;;;;;7.40;1.65;;;23.60;66.70;;;;;;4209450;28;20032;-46
2022/10/13 11:22:02;;;;;;;5.47;1.73;;;23.60;66.70;;;;;;4221563;28;20042;-46
2022/10/13 11:24:43;;;;;;;7.93;1.92;;;23.60;67.00;;;;;;4215903;28;20038;-45
2022/10/13 11:27:11;;;;;;;9.07;1.75;;;23.60;66.90;;;;;;4215677;28;20127;-46
2022/10/13 11:29:46;;;;;;;5.97;1.88;;;23.60;67.00;;;;;;4217634;28;20039;-47
2022/10/13 11:35:07;;;;;;;4.32;1.52;;;23.60;67.20;;;;;;4219158;28;20035;-46
2022/10/13 11:37:48;;;;;;;10.02;1.77;;;23.50;67.20;;;;;;4222377;28;20059;-45
2022/10/13 11:40:28;;;;;;;3.67;1.80;;;23.50;67.30;;;;;;4224615;28;20438;-47
2022/10/13 11:42:57;;;;;;;6.85;1.63;;;23.50;67.20;;;;;;4218828;28;20024;-45
2022/10/13 11:46:03;;;;;;;6.70;1.95;;;23.50;67.40;;;;;;4214902;28;20048;-46
2022/10/13 11:48:31;;;;;;;4.88;1.55;;;23.50;67.40;;;;;;4158397;28;20120;-47
2022/10/13 11:51:15;;;;;;;9.88;2.15;;;23.40;67.60;;;;;;4218871;28;20040;-46
2022/10/13 11:54:05;;;;;;;5.75;1.60;;;23.40;67.70;;;;;;4215846;28;20027;-44
2022/10/13 11:56:46;;;;;;;5.88;1.60;;;23.40;67.70;;;;;;4217267;28;20044;-47
2022/10/13 11:59:25;;;;;;;7.43;1.67;;;23.40;68.00;;;;;;4217951;28;20028;-45
2022/10/13 12:01:52;;;;;;;15.90;2.25;;;23.40;68.10;;;;;;4219890;27;20080;-46
2022/10/13 12:04:15;;;;;;;7.05;2.08;;;23.40;68.20;;;;;;4219669;27;20103;-46
2022/10/13 12:06:39;;;;;;;5.13;1.80;;;23.40;68.20;;;;;;4220921;27;20036;-44
2022/10/13 12:09:17;;;;;;;7.18;1.67;;;23.40;68.40;;;;;;4219288;27;20059;-47
2022/10/13 12:11:39;;;;;;;4.47;1.77;;;23.40;68.30;;;;;;4218632;27;20032;-46
2022/10/13 12:14:40;;;;;;;5.15;1.77;;;23.40;68.30;;;;;;4214252;27;20491;-47
2022/10/13 12:17:02;;;;;;;5.57;1.75;;;23.40;68.30;;;;;;4218645;27;20720;-46
2022/10/13 12:19:29;;;;;;;4.85;1.80;;;23.30;68.20;;;;;;4217461;27;20032;-44
2022/10/13 12:21:57;;;;;;;5.20;2.03;;;23.30;68.40;;;;;;4220324;27;20134;-48
2022/10/13 12:24:23;;;;;;;2.88;1.52;;;23.30;68.10;;;;;;4226399;27;20047;-45
2022/10/13 12:26:45;;;;;;;8.20;1.90;;;23.30;68.20;;;;;;4205920;27;20039;-45
2022/10/13 12:29:16;;;;;;;7.75;2.13;;;23.30;68.20;;;;;;4220883;27;20040;-45
2022/10/13 12:31:50;;;;;;;5.97;2.10;;;23.30;68.30;;;;;;4220381;27;20055;-45
2022/10/13 12:34:30;;;;;;;4.88;1.75;;;23.20;68.20;;;;;;4221230;27;20083;-46
2022/10/13 12:36:58;;;;;;;6.78;1.75;;;23.20;68.20;;;;;;4214848;27;20070;-45
2022/10/13 12:39:21;;;;;;;8.65;2.05;;;23.20;68.80;;;;;;4216451;27;20569;-47
2022/10/13 12:41:46;;;;;;;4.72;1.52;;;23.20;68.80;;;;;;4220217;27;20048;-44
2022/10/13 12:44:31;;;;;;;4.53;1.70;;;23.20;68.70;;;;;;4221356;27;20076;-45
2022/10/13 12:46:59;;;;;;;4.63;1.48;;;23.20;68.70;;;;;;4220335;27;20039;-45
2022/10/13 12:49:33;;;;;;;4.43;1.42;;;23.20;68.60;;;;;;4210096;27;20100;-46
2022/10/13 12:52:18;;;;;;;3.83;1.45;;;23.20;68.90;;;;;;4219256;27;20139;-45